createdAt,value
2023-05-08T00:01:47.892Z,20.90
2023-05-08T00:04:15.271Z,20.80
2023-05-08T00:06:43.243Z,20.80
2023-05-08T00:09:13.359Z,20.80
2023-05-08T00:11:40.526Z,20.80
2023-05-08T00:14:08.012Z,20.80
2023-05-08T00:16:35.149Z,20.90
2023-05-08T00:19:03.225Z,20.90
2023-05-08T00:21:31.368Z,20.90
2023-05-08T00:23:58.525Z,20.90
2023-05-08T00:26:25.951Z,21.00
2023-05-08T00:28:53.197Z,21.00
2023-05-08T00:31:20.454Z,21.00
2023-05-08T00:33:47.666Z,20.90
2023-05-08T00:36:15.979Z,20.90
2023-05-08T00:38:43.585Z,21.00
2023-05-08T00:41:11.017Z,21.00
2023-05-08T00:43:40.165Z,21.00
2023-05-08T00:46:09.919Z,21.00
2023-05-08T00:48:38.102Z,21.00
2023-05-08T00:51:07.920Z,21.00
2023-05-08T00:53:40.562Z,21.10
2023-05-08T00:56:11.110Z,21.10
2023-05-08T00:58:39.377Z,21.10
2023-05-08T01:01:06.688Z,21.10
2023-05-08T01:03:36.054Z,21.00
2023-05-08T01:06:04.307Z,21.00
2023-05-08T01:08:32.251Z,21.00
2023-05-08T01:11:17.588Z,21.00
2023-05-08T01:14:06.585Z,21.00
2023-05-08T01:17:11.844Z,20.90
2023-05-08T01:19:42.153Z,20.90
2023-05-08T01:22:14.782Z,20.80
2023-05-08T01:25:19.329Z,20.80
2023-05-08T01:28:23.868Z,20.50
2023-05-08T01:31:13.313Z,20.40
2023-05-08T01:33:46.285Z,20.10
2023-05-08T01:36:33.272Z,19.80
2023-05-08T01:39:11.928Z,19.70
2023-05-08T01:41:41.569Z,19.60
2023-05-08T01:44:18.266Z,19.70
2023-05-08T01:46:49.690Z,19.80
2023-05-08T01:49:30.107Z,19.80
2023-05-08T01:52:03.187Z,19.60
2023-05-08T01:54:39.448Z,19.50
2023-05-08T01:57:09.533Z,19.30
2023-05-08T01:59:38.777Z,19.40
2023-05-08T02:02:06.980Z,19.50
2023-05-08T02:04:35.950Z,19.70
2023-05-08T02:07:08.386Z,19.70
2023-05-08T02:09:36.964Z,19.80
2023-05-08T02:12:07.060Z,19.70
2023-05-08T02:14:36.049Z,19.70
2023-05-08T02:17:03.950Z,19.50
2023-05-08T02:19:32.892Z,19.50
2023-05-08T02:22:01.478Z,19.50
2023-05-08T02:24:30.320Z,19.30
2023-05-08T02:26:59.252Z,19.20
2023-05-08T02:29:28.471Z,19.00
2023-05-08T02:32:15.114Z,19.00
2023-05-08T02:35:02.617Z,18.80
2023-05-08T02:37:50.493Z,18.60
2023-05-08T02:40:24.094Z,18.50
2023-05-08T02:42:56.434Z,18.60
2023-05-08T02:45:39.075Z,18.50
2023-05-08T02:51:04.483Z,18.20
2023-05-08T02:53:37.709Z,18.10
2023-05-08T02:56:33.544Z,17.90
2023-05-08T02:59:22.050Z,17.80
2023-05-08T03:02:14.532Z,17.70
2023-05-08T03:04:59.664Z,17.80
2023-05-08T03:07:30.819Z,17.90
2023-05-08T03:10:15.880Z,18.00
2023-05-08T03:12:59.052Z,18.00
2023-05-08T03:15:50.739Z,18.00
2023-05-08T03:18:28.596Z,18.00
2023-05-08T03:21:05.907Z,18.10
2023-05-08T03:23:39.964Z,18.10
2023-05-08T03:26:17.986Z,18.00
2023-05-08T03:28:52.931Z,18.10
2023-05-08T03:31:25.986Z,18.00
2023-05-08T03:33:59.350Z,18.00
2023-05-08T03:36:28.988Z,18.00
2023-05-08T03:39:06.071Z,17.90
2023-05-08T03:41:35.858Z,17.80
2023-05-08T03:44:04.643Z,17.70
2023-05-08T03:46:34.434Z,17.60
2023-05-08T03:49:18.214Z,17.40
2023-05-08T03:51:48.762Z,17.40
2023-05-08T03:54:26.230Z,17.50
2023-05-08T03:56:55.188Z,17.50
2023-05-08T03:59:53.231Z,17.60
2023-05-08T04:02:42.239Z,17.40
2023-05-08T04:05:44.680Z,17.30
2023-05-08T04:08:21.406Z,17.20
2023-05-08T04:11:14.235Z,17.20
2023-05-08T04:13:58.781Z,17.20
2023-05-08T04:16:30.309Z,17.20
2023-05-08T04:19:04.470Z,17.20
2023-05-08T04:21:42.776Z,17.20
2023-05-08T04:24:16.192Z,17.20
2023-05-08T04:26:45.984Z,17.10
2023-05-08T04:29:15.531Z,17.10
2023-05-08T04:31:44.489Z,17.00
2023-05-08T04:34:19.673Z,16.80
2023-05-08T04:37:00.308Z,16.90
2023-05-08T04:39:45.612Z,17.00
2023-05-08T04:42:25.644Z,16.90
2023-05-08T04:45:08.144Z,16.80
2023-05-08T04:47:41.739Z,16.70
2023-05-08T04:50:13.321Z,16.60
2023-05-08T04:55:30.888Z,16.50
2023-05-08T04:58:05.629Z,16.50
2023-05-08T05:00:35.423Z,16.40
2023-05-08T05:03:18.773Z,16.40
2023-05-08T05:05:49.762Z,16.40
2023-05-08T05:08:19.110Z,16.50
2023-05-08T05:10:50.109Z,16.50
2023-05-08T05:13:22.549Z,16.40
2023-05-08T05:15:55.139Z,16.50
2023-05-08T05:18:26.760Z,16.50
2023-05-08T05:21:07.304Z,16.30
2023-05-08T05:23:35.902Z,16.30
2023-05-08T05:26:05.940Z,16.20
2023-05-08T05:28:48.651Z,16.10
2023-05-08T05:31:19.077Z,16.10
2023-05-08T05:34:00.729Z,15.90
2023-05-08T05:36:33.820Z,16.00
2023-05-08T05:39:04.728Z,16.00
2023-05-08T05:41:45.517Z,15.90
2023-05-08T05:44:17.212Z,15.80
2023-05-08T05:46:49.878Z,15.80
2023-05-08T05:49:29.308Z,15.80
2023-05-08T05:52:11.451Z,15.70
2023-05-08T05:54:43.137Z,15.70
2023-05-08T05:57:14.298Z,15.80
2023-05-08T05:59:49.810Z,15.80
2023-05-08T06:02:20.294Z,15.90
2023-05-08T06:04:52.548Z,15.90
2023-05-08T06:07:25.178Z,15.80
2023-05-08T06:09:56.199Z,15.90
2023-05-08T06:12:35.145Z,15.90
2023-05-08T06:15:04.317Z,15.80
2023-05-08T06:17:34.329Z,15.60
2023-05-08T06:20:06.997Z,15.50
2023-05-08T06:22:39.345Z,15.40
2023-05-08T06:25:20.548Z,15.40
2023-05-08T06:27:52.520Z,15.30
2023-05-08T06:30:28.614Z,15.00
2023-05-08T06:35:34.647Z,14.60
2023-05-08T06:38:08.762Z,14.40
2023-05-08T06:40:55.475Z,14.20
2023-05-08T06:43:26.160Z,14.30
2023-05-08T06:46:05.489Z,14.20
2023-05-08T06:48:35.164Z,14.30
2023-05-08T06:51:16.391Z,14.30
2023-05-08T06:53:48.261Z,14.30
2023-05-08T06:56:19.274Z,14.30
2023-05-08T06:59:08.579Z,14.30
2023-05-08T07:01:41.079Z,14.30
2023-05-08T07:04:10.826Z,14.10
2023-05-08T07:06:44.239Z,14.10
2023-05-08T07:09:13.542Z,13.90
2023-05-08T07:11:48.252Z,13.90
2023-05-08T07:14:26.815Z,14.00
2023-05-08T07:17:01.860Z,14.00
2023-05-08T07:19:34.011Z,13.90
2023-05-08T07:22:15.647Z,13.90
2023-05-08T07:24:47.831Z,13.80
2023-05-08T07:27:16.888Z,13.70
2023-05-08T07:29:46.661Z,13.70
2023-05-08T07:32:25.251Z,13.60
2023-05-08T07:34:55.624Z,13.40
2023-05-08T07:37:26.680Z,13.30
2023-05-08T07:40:12.099Z,13.40
2023-05-08T07:42:47.598Z,13.50
2023-05-08T07:45:18.203Z,13.50
2023-05-08T07:48:05.941Z,13.60
2023-05-08T07:50:37.711Z,13.60
2023-05-08T07:53:10.665Z,13.40
2023-05-08T07:55:51.336Z,13.40
2023-05-08T07:58:27.639Z,13.40
2023-05-08T08:01:02.673Z,13.30
2023-05-08T08:03:42.334Z,13.30
2023-05-08T08:06:13.719Z,13.20
2023-05-08T08:08:45.310Z,13.10
2023-05-08T08:11:13.721Z,13.00
2023-05-08T08:13:47.325Z,13.00
2023-05-08T08:16:18.380Z,13.00
2023-05-08T08:18:47.945Z,13.20
2023-05-08T08:21:17.912Z,13.40
2023-05-08T08:23:46.798Z,13.40
2023-05-08T08:26:15.964Z,13.60
2023-05-08T08:28:45.724Z,13.50
2023-05-08T08:31:17.612Z,13.50
2023-05-08T08:34:01.421Z,13.60
2023-05-08T08:36:30.991Z,13.60
2023-05-08T08:39:04.632Z,13.60
2023-05-08T08:41:35.218Z,13.50
2023-05-08T08:44:06.512Z,13.40
2023-05-08T08:46:46.161Z,13.30
2023-05-08T08:49:35.328Z,13.40
2023-05-08T08:52:16.952Z,13.40
2023-05-08T08:54:51.711Z,13.40
2023-05-08T08:57:20.307Z,13.30
2023-05-08T09:00:00.268Z,13.20
2023-05-08T09:02:36.095Z,13.20
2023-05-08T09:05:10.108Z,13.00
2023-05-08T09:07:43.991Z,13.00
2023-05-08T09:10:20.144Z,13.00
2023-05-08T09:12:54.152Z,13.20
2023-05-08T09:15:32.676Z,13.40
2023-05-08T09:18:09.292Z,13.30
2023-05-08T09:20:41.734Z,13.40
2023-05-08T09:23:18.736Z,13.40
2023-05-08T09:25:53.614Z,13.60
2023-05-08T09:28:29.352Z,13.70
2023-05-08T09:30:59.505Z,13.70
2023-05-08T09:33:28.990Z,13.80
2023-05-08T09:36:04.630Z,13.90
2023-05-08T09:38:44.648Z,13.70
2023-05-08T09:41:16.182Z,13.70
2023-05-08T09:43:44.833Z,13.60
2023-05-08T09:46:33.348Z,13.70
2023-05-08T09:49:03.894Z,13.90
2023-05-08T09:51:32.800Z,13.80
2023-05-08T09:54:10.401Z,13.90
2023-05-08T09:56:51.095Z,14.00
2023-05-08T09:59:29.707Z,14.00
2023-05-08T10:02:18.417Z,14.00
2023-05-08T10:04:53.228Z,13.80
2023-05-08T10:07:39.430Z,13.60
2023-05-08T10:10:08.644Z,13.50
2023-05-08T10:12:39.386Z,13.50
2023-05-08T10:15:16.686Z,13.70
2023-05-08T10:18:07.412Z,13.60
2023-05-08T10:20:41.768Z,13.90
2023-05-08T10:23:19.207Z,13.90
2023-05-08T10:25:55.593Z,14.00
2023-05-08T10:28:59.583Z,13.90
2023-05-08T10:31:36.461Z,14.00
2023-05-08T10:34:09.635Z,13.90
2023-05-08T10:36:38.713Z,14.00
2023-05-08T10:39:18.163Z,14.00
2023-05-08T10:42:06.119Z,13.70
2023-05-08T10:44:35.833Z,13.60
2023-05-08T10:47:30.705Z,13.60
2023-05-08T10:50:24.191Z,13.50
2023-05-08T10:53:20.548Z,13.40
2023-05-08T10:55:55.822Z,13.30
2023-05-08T10:58:36.527Z,13.40
2023-05-08T11:01:15.497Z,13.50
2023-05-08T11:04:00.461Z,13.80
2023-05-08T11:06:48.905Z,14.00
2023-05-08T11:09:48.686Z,13.90
2023-05-08T11:12:33.667Z,14.10
2023-05-08T11:15:14.134Z,14.40
2023-05-08T11:17:55.001Z,14.50
2023-05-08T11:20:41.309Z,14.70
2023-05-08T11:23:26.282Z,14.50
2023-05-08T11:26:20.248Z,14.60
2023-05-08T11:29:05.349Z,15.00
2023-05-08T11:31:52.158Z,15.40
2023-05-08T11:35:01.020Z,15.70
2023-05-08T11:37:34.435Z,15.70
2023-05-08T11:40:44.569Z,15.90
2023-05-08T11:43:37.654Z,16.10
2023-05-08T11:46:14.578Z,16.20
2023-05-08T11:49:02.009Z,16.50
2023-05-08T11:51:47.111Z,16.50
2023-05-08T11:54:25.341Z,16.80
2023-05-08T11:57:01.585Z,17.00
2023-05-08T11:59:47.761Z,17.10
2023-05-08T12:02:19.482Z,17.40
2023-05-08T12:04:49.742Z,17.50
2023-05-08T12:07:23.119Z,17.60
2023-05-08T12:09:55.790Z,17.50
2023-05-08T12:12:37.060Z,17.60
2023-05-08T12:15:10.769Z,17.90
2023-05-08T12:17:42.574Z,17.90
2023-05-08T12:20:20.784Z,18.10
2023-05-08T12:23:04.721Z,18.60
2023-05-08T12:25:40.731Z,18.80
2023-05-08T12:28:11.930Z,18.70
2023-05-08T12:30:44.139Z,18.40
2023-05-08T12:33:19.012Z,18.30
2023-05-08T12:35:49.385Z,18.30
2023-05-08T12:38:22.368Z,18.10
2023-05-08T12:41:01.873Z,18.50
2023-05-08T12:43:37.887Z,18.80
2023-05-08T12:46:14.285Z,19.00
2023-05-08T12:49:07.367Z,19.50
2023-05-08T12:51:39.821Z,20.10
2023-05-08T12:54:10.822Z,20.20
2023-05-08T12:56:45.565Z,20.70
2023-05-08T12:59:20.086Z,21.10
2023-05-08T13:01:52.717Z,21.30
2023-05-08T13:04:26.439Z,21.40
2023-05-08T13:07:07.305Z,21.40
2023-05-08T13:09:47.858Z,21.80
2023-05-08T13:12:18.864Z,21.90
2023-05-08T13:14:48.613Z,21.50
2023-05-08T13:17:21.768Z,21.40
2023-05-08T13:19:54.370Z,21.70
2023-05-08T13:22:27.031Z,21.80
2023-05-08T13:24:57.314Z,20.70
2023-05-08T13:27:31.383Z,20.40
2023-05-08T13:30:04.250Z,20.30
2023-05-08T13:32:40.846Z,21.50
2023-05-08T13:35:23.005Z,21.10
2023-05-08T13:37:51.832Z,20.80
2023-05-08T13:40:26.936Z,20.40
2023-05-08T13:42:54.999Z,20.30
2023-05-08T13:45:27.165Z,19.90
2023-05-08T13:48:00.646Z,19.70
2023-05-08T13:50:33.260Z,19.60
2023-05-08T13:53:04.010Z,19.50
2023-05-08T13:55:38.109Z,19.40
2023-05-08T13:58:07.973Z,19.40
2023-05-08T14:00:37.613Z,19.10
2023-05-08T14:03:12.753Z,19.10
2023-05-08T14:05:41.457Z,19.30
2023-05-08T14:08:14.722Z,19.30
2023-05-08T14:10:46.966Z,19.50
2023-05-08T14:13:23.016Z,19.80
2023-05-08T14:15:52.857Z,19.70
2023-05-08T14:18:23.985Z,19.50
2023-05-08T14:20:57.463Z,19.70
2023-05-08T14:23:30.286Z,19.90
2023-05-08T14:26:10.565Z,20.00
2023-05-08T14:28:45.320Z,20.00
2023-05-08T14:31:14.783Z,19.70
2023-05-08T14:33:46.921Z,19.50
2023-05-08T14:36:32.913Z,19.30
2023-05-08T14:39:05.188Z,19.30
2023-05-08T14:41:38.790Z,19.40
2023-05-08T14:44:09.857Z,19.40
2023-05-08T14:46:42.582Z,19.40
2023-05-08T14:49:25.261Z,19.60
2023-05-08T14:52:00.232Z,19.50
2023-05-08T14:54:30.950Z,19.70
2023-05-08T14:57:10.303Z,19.90
2023-05-08T14:59:46.126Z,20.00
2023-05-08T15:02:31.113Z,20.10
2023-05-08T15:07:56.572Z,19.90
2023-05-08T15:10:25.861Z,19.80
2023-05-08T15:12:56.512Z,19.80
2023-05-08T15:15:33.978Z,19.70
2023-05-08T15:18:06.859Z,19.40
2023-05-08T15:20:36.706Z,19.40
2023-05-08T15:23:09.993Z,19.30
2023-05-08T15:25:38.804Z,19.40
2023-05-08T15:28:07.877Z,19.50
2023-05-08T15:30:44.058Z,19.60
2023-05-08T15:33:22.913Z,19.60
2023-05-08T15:35:52.405Z,19.70
2023-05-08T15:38:22.925Z,19.60
2023-05-08T15:40:51.636Z,19.70
2023-05-08T15:43:20.544Z,19.90
2023-05-08T15:45:54.374Z,20.40
2023-05-08T15:48:23.914Z,20.50
2023-05-08T15:51:03.455Z,20.50
2023-05-08T15:53:36.262Z,20.30
2023-05-08T15:56:09.065Z,20.20
2023-05-08T15:58:40.045Z,19.60
2023-05-08T16:01:12.741Z,19.30
2023-05-08T16:03:54.496Z,19.00
2023-05-08T16:06:27.623Z,19.00
2023-05-08T16:08:58.788Z,18.90
2023-05-08T16:11:34.820Z,18.80
2023-05-08T16:14:05.058Z,18.90
2023-05-08T16:16:38.174Z,18.80
2023-05-08T16:19:10.245Z,18.80
2023-05-08T16:21:44.429Z,19.10
2023-05-08T16:24:14.811Z,18.90
2023-05-08T16:26:45.874Z,19.10
2023-05-08T16:29:16.642Z,19.00
2023-05-08T16:31:44.932Z,19.00
2023-05-08T16:34:15.132Z,19.00
2023-05-08T16:36:46.992Z,19.00
2023-05-08T16:39:21.729Z,18.90
2023-05-08T16:41:55.932Z,18.90
2023-05-08T16:44:26.503Z,18.90
2023-05-08T16:47:03.877Z,19.00
2023-05-08T16:49:41.201Z,19.00
2023-05-08T16:52:14.273Z,19.00
2023-05-08T16:54:50.038Z,19.00
2023-05-08T16:57:23.531Z,18.90
2023-05-08T16:59:57.719Z,18.70
2023-05-08T17:02:28.940Z,18.60
2023-05-08T17:05:01.428Z,18.70
2023-05-08T17:07:33.136Z,18.60
2023-05-08T17:10:05.781Z,18.50
2023-05-08T17:12:39.739Z,18.50
2023-05-08T17:15:13.203Z,18.50
2023-05-08T17:17:47.688Z,18.40
2023-05-08T17:20:24.497Z,18.30
2023-05-08T17:25:42.419Z,18.10
2023-05-08T17:28:20.273Z,18.10
2023-05-08T17:30:51.467Z,18.10
2023-05-08T17:33:22.830Z,18.00
2023-05-08T17:35:54.753Z,17.90
2023-05-08T17:38:34.512Z,17.90
2023-05-08T17:41:05.856Z,17.90
2023-05-08T17:43:38.575Z,17.80
2023-05-08T17:46:10.572Z,17.70
2023-05-08T17:48:44.703Z,17.70
2023-05-08T17:51:14.861Z,17.60
2023-05-08T17:53:45.501Z,17.60
2023-05-08T17:56:23.036Z,17.50
2023-05-08T17:58:55.575Z,17.40
2023-05-08T18:01:29.803Z,17.40
2023-05-08T18:04:00.311Z,17.40
2023-05-08T18:06:31.192Z,17.40
2023-05-08T18:09:09.081Z,17.40
2023-05-08T18:11:36.985Z,17.30
2023-05-08T18:14:08.173Z,17.30
2023-05-08T18:16:44.006Z,17.30
2023-05-08T18:19:14.080Z,17.40
2023-05-08T18:21:49.740Z,17.40
2023-05-08T18:24:23.056Z,17.30
2023-05-08T18:26:54.219Z,17.30
2023-05-08T18:29:32.488Z,17.30
2023-05-08T18:32:08.007Z,17.20
2023-05-08T18:34:43.223Z,17.10
2023-05-08T18:37:12.902Z,17.00
2023-05-08T18:39:44.969Z,17.00
2023-05-08T18:42:15.853Z,16.90
2023-05-08T18:44:48.172Z,16.90
2023-05-08T18:47:18.453Z,16.80
2023-05-08T18:49:58.462Z,16.90
2023-05-08T18:52:39.036Z,16.90
2023-05-08T18:55:09.002Z,16.80
2023-05-08T18:57:39.751Z,16.70
2023-05-08T19:00:17.450Z,16.60
2023-05-08T19:02:48.734Z,16.70
2023-05-08T19:05:21.314Z,16.60
2023-05-08T19:07:53.393Z,16.50
2023-05-08T19:10:25.140Z,16.50
2023-05-08T19:13:03.958Z,16.50
2023-05-08T19:15:37.802Z,16.40
2023-05-08T19:18:12.739Z,16.40
2023-05-08T19:20:46.099Z,16.40
2023-05-08T19:23:19.110Z,16.40
2023-05-08T19:25:53.837Z,16.40
2023-05-08T19:28:27.771Z,16.40
2023-05-08T19:30:59.710Z,16.30
2023-05-08T19:33:31.323Z,16.30
2023-05-08T19:36:04.524Z,16.30
2023-05-08T19:38:39.291Z,16.30
2023-05-08T19:41:09.098Z,16.20
2023-05-08T19:43:43.106Z,16.20
2023-05-08T19:46:18.685Z,16.20
2023-05-08T19:48:54.613Z,16.30
2023-05-08T19:51:28.796Z,16.20
2023-05-08T19:53:57.646Z,16.20
2023-05-08T19:56:28.043Z,16.20
2023-05-08T19:59:01.377Z,16.20
2023-05-08T20:01:35.346Z,16.10
2023-05-08T20:04:11.203Z,16.10
2023-05-08T20:06:41.360Z,16.10
2023-05-08T20:09:09.541Z,16.00
2023-05-08T20:11:40.705Z,16.00
2023-05-08T20:14:23.416Z,16.00
2023-05-08T20:17:01.350Z,16.00
2023-05-08T20:19:42.118Z,16.00
2023-05-08T20:22:22.164Z,15.90
2023-05-08T20:24:55.201Z,15.80
2023-05-08T20:27:26.309Z,15.90
2023-05-08T20:30:06.471Z,15.90
2023-05-08T20:32:40.388Z,15.80
2023-05-08T20:35:11.865Z,15.80
2023-05-08T20:37:51.781Z,15.70
2023-05-08T20:40:25.210Z,15.70
2023-05-08T20:42:52.917Z,15.70
2023-05-08T20:45:26.044Z,15.70
2023-05-08T20:47:59.331Z,15.70
2023-05-08T20:50:29.210Z,15.70
2023-05-08T20:53:04.407Z,15.60
2023-05-08T20:55:33.874Z,15.50
2023-05-08T20:58:05.885Z,15.40
2023-05-08T21:00:37.379Z,15.50
2023-05-08T21:03:08.320Z,15.40
2023-05-08T21:05:41.569Z,15.40
2023-05-08T21:08:17.093Z,15.40
2023-05-08T21:10:51.935Z,15.30
2023-05-08T21:13:26.411Z,15.20
2023-05-08T21:16:02.125Z,15.20
2023-05-08T21:18:45.125Z,15.20
2023-05-08T21:21:27.958Z,15.10
2023-05-08T21:24:02.219Z,15.00
2023-05-08T21:26:40.758Z,15.00
2023-05-08T21:29:15.789Z,15.00
2023-05-08T21:31:46.733Z,15.00
2023-05-08T21:34:27.200Z,15.00
2023-05-08T21:37:04.307Z,15.00
2023-05-08T21:39:32.787Z,15.10
2023-05-08T21:42:07.536Z,15.00
2023-05-08T21:44:41.970Z,15.10
2023-05-08T21:47:11.333Z,14.90
2023-05-08T21:49:48.442Z,14.90
2023-05-08T21:52:22.227Z,14.80
2023-05-08T21:55:01.350Z,14.70
2023-05-08T21:57:32.104Z,14.60
2023-05-08T22:00:11.340Z,14.50
2023-05-08T22:03:02.956Z,14.50
2023-05-08T22:05:32.334Z,14.50
2023-05-08T22:08:00.803Z,14.60
2023-05-08T22:10:30.534Z,14.60
2023-05-08T22:13:01.546Z,14.50
2023-05-08T22:15:32.452Z,14.40
2023-05-08T22:18:05.486Z,14.30
2023-05-08T22:20:40.188Z,14.30
2023-05-08T22:23:15.367Z,14.30
2023-05-08T22:25:47.228Z,14.20
2023-05-08T22:28:18.296Z,14.20
2023-05-08T22:30:52.866Z,14.20
2023-05-08T22:33:27.076Z,14.10
2023-05-08T22:35:56.821Z,14.10
2023-05-08T22:38:28.619Z,13.90
2023-05-08T22:40:58.777Z,13.90
2023-05-08T22:43:28.237Z,13.80
2023-05-08T22:45:57.295Z,13.80
2023-05-08T22:48:27.212Z,13.80
2023-05-08T22:51:00.326Z,13.90
2023-05-08T22:53:34.420Z,13.90
2023-05-08T22:56:07.067Z,13.90
2023-05-08T22:58:36.436Z,13.80
2023-05-08T23:01:07.138Z,13.80
2023-05-08T23:03:37.679Z,13.70
2023-05-08T23:06:08.795Z,13.80
2023-05-08T23:08:38.251Z,13.80
2023-05-08T23:11:13.929Z,13.80
2023-05-08T23:13:49.470Z,13.70
2023-05-08T23:16:27.198Z,13.70
2023-05-08T23:19:06.319Z,13.70
2023-05-08T23:21:47.407Z,13.70
2023-05-08T23:24:22.531Z,13.60
2023-05-08T23:26:56.834Z,13.60
2023-05-08T23:29:32.027Z,13.60
2023-05-08T23:32:04.650Z,13.50
2023-05-08T23:34:38.657Z,13.50
2023-05-08T23:37:09.452Z,13.50
2023-05-08T23:39:41.408Z,13.40
2023-05-08T23:42:13.311Z,13.40
2023-05-08T23:44:54.777Z,13.40
2023-05-08T23:47:34.494Z,13.50
2023-05-08T23:50:12.261Z,13.50
2023-05-08T23:52:43.121Z,13.50
2023-05-08T23:55:20.006Z,13.40
2023-05-08T23:57:50.931Z,13.30
